Terminal Aerodrome Forecast
Issued by NWS

Home | Current Version | Previous Version | Text Only | Print | Product List | Glossary On
Versions: 1 2 3 4 5 6 7 8 9 10 11 12 13 14 15
000
FTUS44 KEPZ 221900 AAA
TAFTCS
TAF AMD
KTCS 221922Z 2219/2318 18010G20KT P6SM SKC
     FM222000 20018G28KT P6SM SCT050 SCT250
     FM222200 20023G33KT P6SM SCT050 SCT250
     FM230300 23010KT P6SM SCT250
     FM231600 20012G20KT P6SM SCT050 SCT200=

USA.gov is the U.S. government's official web portal to all federal, state and local government web resources and services.